Time;durP1;ratioP1;P1;durP2;ratioP2;P2;SDS_P1;SDS_P2;PMS_P1;PMS_P2;Temp;Humidity;BMP_temperature;BMP_pressure;BME280_temperature;BME280_humidity;BME280_pressure;Samples;Min_cycle;Max_cycle;Signal;HPM_P1;HPM_P2
2022/11/07 00:00:12;;;;;;;1.80;1.02;;;;;;;7.79;100.00;95766.06;1026223;28;20026;-71
2022/11/07 00:00:42;;;;;;;2.65;0.93;;;;;;;7.87;100.00;95779.72;1027032;28;20689;-72
2022/11/07 00:01:17;;;;;;;0.93;0.93;;;;;;;7.86;100.00;95775.53;1026237;28;20322;-72
2022/11/07 00:01:48;;;;;;;1.10;1.00;;;;;;;7.77;100.00;95767.31;1022867;28;20114;-69
2022/11/07 00:02:18;;;;;;;1.02;0.93;;;;;;;7.86;100.00;95770.31;1021990;29;20267;-70
2022/11/07 00:02:49;;;;;;;1.30;0.90;;;;;;;7.85;100.00;95771.34;1022158;29;20030;-70
2022/11/07 00:03:19;;;;;;;1.10;0.65;;;;;;;7.86;100.00;95765.09;1022464;28;20030;-71
2022/11/07 00:03:53;;;;;;;1.13;0.93;;;;;;;7.87;100.00;95779.72;1026201;28;20027;-71
2022/11/07 00:04:23;;;;;;;1.73;1.00;;;;;;;7.80;100.00;95762.41;1022897;28;20046;-71
2022/11/07 00:04:54;;;;;;;1.50;1.27;;;;;;;7.91;100.00;95773.75;1022356;29;20333;-71
2022/11/07 00:05:24;;;;;;;1.70;0.75;;;;;;;7.90;100.00;95774.00;1026113;28;20493;-72
2022/11/07 00:05:55;;;;;;;2.47;0.93;;;;;;;7.90;100.00;95772.19;1029644;28;20046;-73
2022/11/07 00:06:25;;;;;;;2.38;0.90;;;;;;;7.88;100.00;95770.84;1034344;28;20037;-70
2022/11/07 00:06:56;;;;;;;2.28;1.20;;;;;;;7.85;100.00;95766.13;1034307;28;20018;-72
2022/11/07 00:07:26;;;;;;;1.13;0.88;;;;;;;7.81;100.00;95768.41;1030253;28;20022;-71
2022/11/07 00:07:56;;;;;;;0.98;0.90;;;;;;;7.89;100.00;95769.81;1030413;28;20484;-71
2022/11/07 00:08:30;;;;;;;1.30;1.15;;;;;;;7.83;100.00;95765.56;1026213;28;20066;-72
2022/11/07 00:09:01;;;;;;;1.05;0.95;;;;;;;7.87;100.00;95761.44;1022948;28;20019;-71
2022/11/07 00:09:31;;;;;;;1.02;0.90;;;;;;;7.91;100.00;95778.97;1022139;29;20267;-72
2022/11/07 00:10:03;;;;;;;0.95;0.80;;;;;;;7.91;100.00;95778.19;1022909;28;20023;-71
2022/11/07 00:10:33;;;;;;;1.60;1.13;;;;;;;7.93;100.00;95779.53;1021108;29;20023;-72
2022/11/07 00:11:04;;;;;;;1.80;0.82;;;;;;;7.87;100.00;95767.44;1018493;29;20263;-72
2022/11/07 00:11:34;;;;;;;1.13;1.00;;;;;;;7.96;100.00;95786.88;1022241;29;20035;-73
2022/11/07 00:12:05;;;;;;;1.35;1.00;;;;;;;7.95;100.00;95779.31;1023750;28;20389;-71
2022/11/07 00:12:35;;;;;;;1.20;0.90;;;;;;;7.95;100.00;95777.47;1025684;28;20826;-72
2022/11/07 00:13:06;;;;;;;2.20;0.90;;;;;;;7.97;100.00;95779.81;1026231;28;20026;-72
2022/11/07 00:13:36;;;;;;;0.80;0.80;;;;;;;7.94;100.00;95772.47;1026474;28;20022;-71
2022/11/07 00:14:07;;;;;;;0.73;0.73;;;;;;;7.95;100.00;95779.31;1022188;28;20111;-70
2022/11/07 00:14:37;;;;;;;0.90;0.63;;;;;;;7.98;100.00;95782.22;1022466;29;20027;-73
2022/11/07 00:15:08;;;;;;;0.70;0.70;;;;;;;7.95;100.00;95785.31;1022417;28;20023;-72
2022/11/07 00:15:38;;;;;;;1.45;1.20;;;;;;;7.93;100.00;95782.13;1022493;28;20039;-71
2022/11/07 00:16:09;;;;;;;2.30;0.93;;;;;;;7.95;100.00;95787.94;1034327;28;20084;-70
2022/11/07 00:16:40;;;;;;;3.83;1.27;;;;;;;7.97;100.00;95790.28;1030442;28;20046;-72
2022/11/07 00:17:10;;;;;;;3.15;0.85;;;;;;;7.98;100.00;95778.78;1030333;28;20084;-72
2022/11/07 00:17:41;;;;;;;0.73;0.73;;;;;;;7.95;100.00;95780.09;1034365;28;20049;-71
2022/11/07 00:18:11;;;;;;;0.93;0.80;;;;;;;7.97;100.00;95783.22;1022234;29;20102;-71
2022/11/07 00:18:42;;;;;;;1.25;0.77;;;;;;;7.94;100.00;95777.69;1022350;28;20035;-71
2022/11/07 00:19:14;;;;;;;2.10;0.73;;;;;;;7.98;100.00;95779.59;1026348;28;20043;-72
2022/11/07 00:19:44;;;;;;;1.23;1.13;;;;;;;7.99;100.00;95783.00;1022871;28;20050;-72
2022/11/07 00:20:15;;;;;;;1.65;0.80;;;;;;;7.95;100.00;95774.84;1034300;28;20782;-71
2022/11/07 00:20:45;;;;;;;1.65;0.90;;;;;;;8.00;100.00;95784.56;1026162;28;20054;-69
2022/11/07 00:21:16;;;;;;;1.10;0.88;;;;;;;7.98;100.00;95789.25;1026416;28;20030;-72
2022/11/07 00:21:47;;;;;;;1.25;1.00;;;;;;;7.97;100.00;95792.91;1022278;29;20105;-73
2022/11/07 00:22:17;;;;;;;0.60;0.60;;;;;;;7.98;100.00;95789.25;1023561;28;20314;-73
2022/11/07 00:22:48;;;;;;;1.23;0.90;;;;;;;7.98;100.00;95786.63;1034277;28;20021;-72
2022/11/07 00:23:18;;;;;;;1.25;1.05;;;;;;;7.98;100.00;95794.47;1034433;28;20038;-72
2022/11/07 00:23:49;;;;;;;2.40;0.77;;;;;;;7.96;100.00;95792.09;1034441;28;20033;-71
2022/11/07 00:24:19;;;;;;;1.92;0.90;;;;;;;7.97;100.00;95795.50;1042542;28;20044;-70
2022/11/07 00:24:50;;;;;;;1.40;1.00;;;;;;;7.96;100.00;95796.53;1042573;28;20469;-72
2022/11/07 00:25:20;;;;;;;1.30;0.75;;;;;;;7.96;100.00;95792.09;1042503;28;20086;-72
2022/11/07 00:25:50;;;;;;;4.63;1.00;;;;;;;8.02;100.00;95792.97;1039530;28;20520;-72
2022/11/07 00:26:21;;;;;;;2.05;1.08;;;;;;;8.00;100.00;95797.63;1038322;28;20018;-73
2022/11/07 00:26:51;;;;;;;0.88;0.65;;;;;;;7.97;100.00;95800.72;1034408;28;20423;-71
2022/11/07 00:27:22;;;;;;;1.75;0.80;;;;;;;7.96;100.00;95799.16;1034056;28;20041;-73
2022/11/07 00:27:52;;;;;;;1.48;0.95;;;;;;;7.97;100.00;95798.91;1029813;28;20091;-71
2022/11/07 00:28:23;;;;;;;1.67;1.00;;;;;;;7.96;100.00;95796.53;1027134;28;20026;-72
2022/11/07 00:28:53;;;;;;;1.73;1.00;;;;;;;7.97;100.00;95798.91;1030234;28;20019;-72
2022/11/07 00:29:24;;;;;;;1.90;1.00;;;;;;;7.96;100.00;95804.38;1033124;28;20026;-73
2022/11/07 00:29:54;;;;;;;1.33;0.70;;;;;;;7.95;100.00;95794.97;1038317;28;20021;-70
2022/11/07 00:30:24;;;;;;;2.05;1.00;;;;;;;7.93;100.00;95802.25;1034270;28;20026;-72
2022/11/07 00:30:57;;;;;;;1.25;0.93;;;;;;;7.89;100.00;95785.50;1034274;28;20416;-73
2022/11/07 00:31:28;;;;;;;0.98;0.70;;;;;;;7.93;100.00;95799.66;1034301;28;20018;-72
2022/11/07 00:31:59;;;;;;;1.13;0.88;;;;;;;7.95;100.00;95801.00;1030693;28;20258;-72
2022/11/07 00:32:29;;;;;;;1.13;0.80;;;;;;;7.97;100.00;95798.13;1027188;28;20360;-71
2022/11/07 00:33:00;;;;;;;2.15;1.20;;;;;;;7.98;100.00;95799.69;1031180;28;20022;-73
2022/11/07 00:33:30;;;;;;;1.30;0.77;;;;;;;7.98;100.00;95794.47;1030253;28;20021;-72
2022/11/07 00:34:00;;;;;;;0.75;0.70;;;;;;;8.00;100.00;95795.03;1026319;28;20018;-72
2022/11/07 00:34:34;;;;;;;1.00;0.80;;;;;;;7.99;100.00;95796.06;1029395;28;20023;-73
2022/11/07 00:35:04;;;;;;;1.23;0.88;;;;;;;7.98;100.00;95797.88;1014878;29;20027;-72
2022/11/07 00:35:40;;;;;;;0.77;0.70;;;;;;;7.92;100.00;95787.63;1018482;29;20263;-73
2022/11/07 00:36:21;;;;;;;0.73;0.70;;;;;;;7.99;100.00;95798.69;1018076;29;20580;-71
2022/11/07 00:36:51;;;;;;;0.80;0.60;;;;;;;7.97;100.00;95787.66;1024368;28;20618;-71
2022/11/07 00:37:22;;;;;;;1.25;0.85;;;;;;;7.94;100.00;95788.94;1024609;28;20366;-72
2022/11/07 00:37:55;;;;;;;1.88;1.00;;;;;;;8.02;100.00;95791.13;1026204;28;20059;-73
2022/11/07 00:38:26;;;;;;;0.93;0.75;;;;;;;8.01;100.00;95792.19;1025098;28;20543;-72
2022/11/07 00:38:56;;;;;;;1.45;0.90;;;;;;;8.02;100.00;95795.56;1018258;29;20274;-72
2022/11/07 00:39:27;;;;;;;1.10;0.95;;;;;;;8.08;100.00;95799.84;1021825;28;20047;-71
2022/11/07 00:39:57;;;;;;;0.70;0.70;;;;;;;8.08;100.00;95799.84;1023216;28;20043;-72
2022/11/07 00:40:28;;;;;;;0.77;0.68;;;;;;;8.05;100.00;95789.88;1026153;28;20041;-72
2022/11/07 00:41:04;;;;;;;1.73;0.85;;;;;;;8.05;100.00;95795.09;1034351;28;20018;-71
2022/11/07 00:41:35;;;;;;;1.83;0.90;;;;;;;7.99;100.00;95785.63;1033369;28;20041;-72
2022/11/07 00:42:08;;;;;;;1.08;0.75;;;;;;;8.03;100.00;95797.94;1027071;28;20273;-72
2022/11/07 00:42:39;;;;;;;1.35;0.90;;;;;;;8.03;100.00;95799.75;1029452;28;20069;-73
2022/11/07 00:43:09;;;;;;;1.38;0.93;;;;;;;8.03;100.00;95797.16;1030819;28;20328;-71
2022/11/07 00:43:48;;;;;;;2.50;0.80;;;;;;;7.98;100.00;95797.06;1031827;28;20030;-72
2022/11/07 00:44:19;;;;;;;3.13;0.93;;;;;;;8.02;100.00;95800.81;1034291;28;20277;-72
2022/11/07 00:44:49;;;;;;;0.70;0.70;;;;;;;8.02;100.00;95801.59;1035202;28;20040;-73
2022/11/07 00:45:20;;;;;;;1.05;0.80;;;;;;;8.07;100.00;95808.69;1030343;28;20030;-72
2022/11/07 00:45:53;;;;;;;1.52;0.90;;;;;;;8.09;100.00;95805.84;1022190;29;20046;-72
2022/11/07 00:46:24;;;;;;;1.63;1.08;;;;;;;8.06;100.00;95806.31;1018402;29;20114;-72
2022/11/07 00:46:54;;;;;;;2.50;0.80;;;;;;;8.06;100.00;95806.31;1026231;28;20277;-72
2022/11/07 00:47:24;;;;;;;1.45;1.00;;;;;;;8.01;100.00;95805.25;1027175;28;20035;-72
2022/11/07 00:47:55;;;;;;;2.45;0.85;;;;;;;7.99;100.00;95801.28;1034372;28;20026;-71
2022/11/07 00:48:25;;;;;;;1.20;0.70;;;;;;;8.09;100.00;95811.06;1034086;28;20026;-69
2022/11/07 00:48:56;;;;;;;1.92;0.95;;;;;;;8.12;100.00;95811.38;1026301;28;20031;-73
2022/11/07 00:49:26;;;;;;;1.38;0.95;;;;;;;8.11;100.00;95814.22;1022304;28;20144;-72
2022/11/07 00:49:56;;;;;;;1.23;0.80;;;;;;;8.11;100.00;95820.22;1027678;28;20035;-72
2022/11/07 00:50:27;;;;;;;2.67;1.00;;;;;;;8.10;100.00;95818.66;1030274;28;20053;-72
2022/11/07 00:51:21;;;;;;;1.13;0.80;;;;;;;8.15;100.00;95807.44;1030259;28;20313;-69
2022/11/07 00:51:52;;;;;;;1.70;1.15;;;;;;;8.13;100.00;95814.75;1028492;28;20131;-73
2022/11/07 00:52:22;;;;;;;2.95;1.20;;;;;;;8.11;100.00;95822.84;1025009;28;20303;-72
2022/11/07 00:52:53;;;;;;;2.78;0.80;;;;;;;8.14;100.00;95814.50;1026331;28;20038;-73
2022/11/07 00:53:23;;;;;;;0.80;0.80;;;;;;;8.17;100.00;95815.84;1033599;28;20037;-73
2022/11/07 00:53:54;;;;;;;1.70;1.00;;;;;;;8.15;100.00;95812.69;1034628;28;20025;-72
2022/11/07 00:54:25;;;;;;;2.05;1.00;;;;;;;8.16;100.00;95824.72;1022488;29;20059;-73
2022/11/07 00:54:55;;;;;;;0.95;0.70;;;;;;;8.17;100.00;95824.47;1018623;29;20036;-73
2022/11/07 00:55:25;;;;;;;0.95;0.90;;;;;;;8.17;100.00;95827.09;1022237;29;20030;-72
2022/11/07 00:56:10;;;;;;;1.35;1.10;;;;;;;8.20;100.00;95821.38;1022620;28;20032;-73
2022/11/07 00:56:40;;;;;;;1.27;0.90;;;;;;;8.21;100.00;95822.94;1036307;28;20117;-72
2022/11/07 00:57:10;;;;;;;1.30;0.93;;;;;;;8.15;100.00;95816.09;1038341;28;20272;-72
2022/11/07 00:57:41;;;;;;;1.63;0.90;;;;;;;8.19;100.00;95827.66;1034503;28;20049;-73
2022/11/07 00:58:11;;;;;;;1.15;0.80;;;;;;;8.19;100.00;95826.88;1030274;28;20045;-72
2022/11/07 00:58:43;;;;;;;2.88;1.13;;;;;;;8.20;100.00;95825.81;1030251;28;20042;-72
2022/11/07 00:59:13;;;;;;;1.88;1.13;;;;;;;8.22;100.00;95824.53;1030421;28;20132;-72
2022/11/07 00:59:44;;;;;;;2.50;0.88;;;;;;;8.24;100.00;95835.53;1034756;28;20730;-74
2022/11/07 01:00:14;;;;;;;1.67;0.90;;;;;;;8.22;100.00;95829.00;1038242;28;20030;-72
2022/11/07 01:00:45;;;;;;;2.75;1.00;;;;;;;8.21;100.00;95830.00;1034415;28;20140;-72
2022/11/07 01:01:17;;;;;;;1.38;1.00;;;;;;;8.22;100.00;95826.38;1030306;28;20030;-72
2022/11/07 01:01:47;;;;;;;2.13;1.02;;;;;;;8.21;100.00;95824.78;1030930;28;20030;-72
2022/11/07 01:02:17;;;;;;;1.45;1.13;;;;;;;8.23;100.00;95831.34;1034245;28;20678;-72
2022/11/07 01:05:09;;;;;;;1.13;0.80;;;;;;;8.25;100.00;95831.91;1038313;28;20616;-73
2022/11/07 01:05:20;;;;;;;1.17;0.65;;;;;;;8.29;100.00;95826.19;1031560;28;21022;-74
2022/11/07 01:05:55;;;;;;;2.10;0.85;;;;;;;8.22;100.00;95826.38;1038304;28;20275;-72
2022/11/07 01:06:27;;;;;;;1.15;0.90;;;;;;;8.27;100.00;95823.81;1034092;28;20348;-72
2022/11/07 01:07:00;;;;;;;1.60;1.10;;;;;;;8.32;100.00;95836.16;1036042;28;20261;-72
2022/11/07 01:07:32;;;;;;;1.15;0.88;;;;;;;8.26;100.00;95828.25;1030166;28;20367;-72
2022/11/07 01:08:02;;;;;;;1.38;0.90;;;;;;;8.31;100.00;95834.56;1031148;28;20495;-71
2022/11/07 01:08:33;;;;;;;0.98;0.85;;;;;;;8.24;100.00;95835.53;1029935;28;20376;-72
2022/11/07 01:09:05;;;;;;;2.97;1.02;;;;;;;8.27;100.00;95829.81;1022606;28;20031;-71
2022/11/07 01:09:35;;;;;;;1.20;0.90;;;;;;;8.27;100.00;95836.88;1014255;29;20079;-72
2022/11/07 01:10:06;;;;;;;1.27;0.90;;;;;;;8.20;100.00;95837.06;1014532;29;20850;-72
2022/11/07 01:10:40;;;;;;;0.70;0.70;;;;;;;8.20;100.00;95833.66;1026344;28;20557;-72
2022/11/07 01:11:10;;;;;;;1.20;0.80;;;;;;;8.15;100.00;95842.25;1030755;28;20038;-73
2022/11/07 01:11:41;;;;;;;1.73;1.00;;;;;;;8.12;100.00;95837.50;1034559;28;20274;-72
2022/11/07 01:12:11;;;;;;;0.82;0.77;;;;;;;8.12;100.00;95836.72;1034090;28;20021;-72
2022/11/07 01:12:42;;;;;;;1.67;1.00;;;;;;;8.12;100.00;95837.50;1038106;28;20079;-72
2022/11/07 01:13:13;;;;;;;1.20;0.85;;;;;;;8.11;100.00;95838.50;1030178;28;20038;-71
2022/11/07 01:13:43;;;;;;;1.83;1.00;;;;;;;8.04;100.00;95827.47;1027021;28;20273;-73
2022/11/07 01:14:15;;;;;;;1.17;0.80;;;;;;;8.09;100.00;95845.03;1021956;29;20023;-72
2022/11/07 01:14:45;;;;;;;0.77;0.77;;;;;;;8.06;100.00;95835.84;1022182;29;20023;-72
2022/11/07 01:15:16;;;;;;;1.55;0.80;;;;;;;8.00;100.00;95829.00;1022599;28;20275;-71
2022/11/07 01:15:46;;;;;;;2.78;0.90;;;;;;;7.99;100.00;95837.88;1025666;28;20030;-71
2022/11/07 01:16:17;;;;;;;1.75;1.10;;;;;;;7.96;100.00;95838.34;1022420;28;20034;-72
2022/11/07 01:16:47;;;;;;;1.10;0.90;;;;;;;7.92;100.00;95838.06;1030324;28;20026;-71
2022/11/07 01:17:18;;;;;;;2.08;0.90;;;;;;;7.94;100.00;95835.19;1029936;28;20068;-72
2022/11/07 01:17:48;;;;;;;1.80;1.10;;;;;;;7.93;100.00;95838.84;1037938;28;20033;-72
2022/11/07 01:18:18;;;;;;;2.13;1.00;;;;;;;7.98;100.00;95836.28;1034311;28;20045;-71
2022/11/07 01:18:49;;;;;;;2.90;0.98;;;;;;;7.90;100.00;95823.66;1034191;28;20037;-73
2022/11/07 01:19:19;;;;;;;1.35;0.80;;;;;;;7.99;100.00;95837.88;1026275;28;20103;-72
2022/11/07 01:19:50;;;;;;;1.88;1.00;;;;;;;7.97;100.00;95839.94;1030344;28;20049;-72
2022/11/07 01:20:20;;;;;;;0.98;0.73;;;;;;;8.03;100.00;95837.13;1029974;28;20034;-71
2022/11/07 01:20:51;;;;;;;2.20;1.13;;;;;;;8.01;100.00;95833.16;1030127;28;20026;-72
2022/11/07 01:21:22;;;;;;;3.00;1.00;;;;;;;7.94;100.00;95829.97;1030489;28;20186;-72
2022/11/07 01:21:52;;;;;;;1.08;0.98;;;;;;;8.01;100.00;95833.16;1026386;28;20322;-71
2022/11/07 01:22:23;;;;;;;2.45;1.10;;;;;;;8.03;100.00;95836.34;1029961;28;20034;-69
2022/11/07 01:22:53;;;;;;;1.70;1.30;;;;;;;8.08;100.00;95830.38;1030475;28;20026;-71
2022/11/07 01:23:24;;;;;;;1.65;1.20;;;;;;;8.09;100.00;95838.00;1030582;28;20030;-71
2022/11/07 01:23:54;;;;;;;1.10;0.90;;;;;;;8.05;100.00;95842.13;1032192;28;20027;-71
2022/11/07 01:24:24;;;;;;;2.03;1.02;;;;;;;8.04;100.00;95836.09;1038473;28;20036;-73
2022/11/07 01:24:55;;;;;;;1.83;1.00;;;;;;;8.03;100.00;95838.97;1038858;28;20057;-72
2022/11/07 01:25:25;;;;;;;1.85;1.20;;;;;;;7.98;100.00;95831.03;1038534;28;20518;-73
2022/11/07 01:25:56;;;;;;;3.60;1.15;;;;;;;8.03;100.00;95833.72;1030798;28;20440;-72
2022/11/07 01:26:26;;;;;;;1.60;0.90;;;;;;;8.09;100.00;95843.22;1030318;28;20132;-72
2022/11/07 01:26:57;;;;;;;1.35;1.20;;;;;;;8.16;100.00;95846.44;1030536;28;20026;-71
2022/11/07 01:27:27;;;;;;;1.75;1.38;;;;;;;8.12;100.00;95847.97;1026293;28;20023;-71
2022/11/07 01:27:58;;;;;;;1.20;1.10;;;;;;;8.10;100.00;95839.56;1026655;28;20018;-73
2022/11/07 01:28:28;;;;;;;1.63;0.93;;;;;;;8.11;100.00;95848.97;1018263;29;20028;-72
2022/11/07 01:28:58;;;;;;;1.20;1.10;;;;;;;8.10;100.00;95844.78;1018488;28;20039;-73
2022/11/07 01:29:29;;;;;;;1.52;1.20;;;;;;;8.13;100.00;95839.06;1026293;28;20048;-72
2022/11/07 01:29:59;;;;;;;1.70;1.20;;;;;;;8.12;100.00;95836.72;1026528;28;20030;-73
2022/11/07 01:30:30;;;;;;;1.05;0.80;;;;;;;8.10;100.00;95841.38;1034093;28;20015;-72
2022/11/07 01:31:07;;;;;;;2.33;1.40;;;;;;;8.06;100.00;95837.69;1034331;28;20069;-73
2022/11/07 01:31:38;;;;;;;1.95;0.90;;;;;;;8.05;100.00;95842.13;1018370;29;20003;-72
2022/11/07 01:32:09;;;;;;;2.05;1.48;;;;;;;8.06;100.00;95842.91;1018469;29;20342;-71
2022/11/07 01:32:39;;;;;;;2.25;1.10;;;;;;;8.10;100.00;95839.56;1020284;29;20066;-72
2022/11/07 01:33:10;;;;;;;2.90;1.55;;;;;;;8.04;100.00;95832.69;1024292;28;20065;-73
2022/11/07 01:33:41;;;;;;;1.33;1.20;;;;;;;8.09;100.00;95843.22;1026462;28;20046;-71
2022/11/07 01:34:11;;;;;;;1.42;0.93;;;;;;;8.01;100.00;95838.41;1022388;29;20019;-72
2022/11/07 01:34:42;;;;;;;1.42;1.08;;;;;;;8.04;100.00;95836.09;1020476;29;20811;-73
2022/11/07 01:35:15;;;;;;;1.13;1.02;;;;;;;8.05;100.00;95834.28;1022425;29;20074;-72
2022/11/07 01:35:45;;;;;;;3.33;1.38;;;;;;;8.08;100.00;95843.44;1022854;28;20027;-71
2022/11/07 01:36:16;;;;;;;1.38;1.10;;;;;;;8.06;100.00;95846.31;1026713;28;20274;-71
2022/11/07 01:36:49;;;;;;;0.88;0.88;;;;;;;8.16;100.00;95849.03;1026223;28;20485;-72
2022/11/07 01:37:20;;;;;;;1.63;1.25;;;;;;;8.16;100.00;95843.81;1022355;29;20039;-71
2022/11/07 01:37:50;;;;;;;1.42;1.13;;;;;;;8.07;100.00;95840.03;1022346;29;20278;-72
2022/11/07 01:38:21;;;;;;;1.33;1.00;;;;;;;8.14;100.00;95840.66;1027326;28;20513;-72
2022/11/07 01:38:51;;;;;;;1.25;1.10;;;;;;;8.14;100.00;95837.25;1034298;28;20596;-73
2022/11/07 01:39:21;;;;;;;3.58;1.90;;;;;;;8.17;100.00;95849.81;1030533;28;20542;-73
2022/11/07 01:39:52;;;;;;;2.00;1.30;;;;;;;8.16;100.00;95849.03;1027921;28;20488;-72
2022/11/07 01:40:22;;;;;;;1.63;1.05;;;;;;;8.16;100.00;95841.19;1026292;28;20531;-72
2022/11/07 01:41:42;;;;;;;2.70;1.33;;;;;;;8.14;100.00;95840.66;1026319;28;20027;-73
2022/11/07 01:42:12;;;;;;;1.65;1.10;;;;;;;8.19;100.00;95848.56;1021944;28;20286;-73
2022/11/07 01:42:45;;;;;;;1.38;1.00;;;;;;;8.19;100.00;95848.56;1022218;29;20027;-73
2022/11/07 01:43:15;;;;;;;1.88;1.20;;;;;;;8.18;100.00;95847.00;1022218;29;20708;-73
2022/11/07 01:43:53;;;;;;;1.20;1.10;;;;;;;8.20;100.00;95849.34;1022842;28;20275;-72
2022/11/07 01:44:23;;;;;;;2.65;1.30;;;;;;;8.16;100.00;95843.81;1027759;28;20083;-70
2022/11/07 01:44:56;;;;;;;0.98;0.90;;;;;;;8.16;100.00;95843.81;1027089;28;20254;-72
2022/11/07 01:45:30;;;;;;;2.25;1.33;;;;;;;8.20;100.00;95846.72;1027595;28;20082;-73
2022/11/07 01:46:00;;;;;;;1.85;1.33;;;;;;;8.21;100.00;95848.28;1030462;28;20273;-72
2022/11/07 01:46:40;;;;;;;1.48;1.15;;;;;;;8.19;100.00;95840.72;1030976;28;20327;-71
2022/11/07 01:47:11;;;;;;;1.10;0.95;;;;;;;8.20;100.00;95841.50;1032126;28;20046;-72
2022/11/07 01:47:41;;;;;;;2.08;1.40;;;;;;;8.15;100.00;95834.41;1030379;28;20038;-72
2022/11/07 01:48:12;;;;;;;3.97;1.20;;;;;;;8.15;100.00;95841.44;1021857;29;20121;-72
2022/11/07 01:48:47;;;;;;;1.27;1.08;;;;;;;8.12;100.00;95827.06;1026432;28;20031;-72
2022/11/07 01:49:20;;;;;;;1.92;0.98;;;;;;;8.11;100.00;95833.28;1022353;29;20031;-71
2022/11/07 01:49:50;;;;;;;1.90;1.30;;;;;;;8.16;100.00;95838.59;1026617;28;20756;-71
2022/11/07 01:50:20;;;;;;;3.08;1.00;;;;;;;8.10;100.00;95826.50;1026312;28;20278;-72
2022/11/07 01:50:51;;;;;;;1.60;1.20;;;;;;;8.20;100.00;95842.28;1030255;28;20029;-73
2022/11/07 01:51:21;;;;;;;2.15;1.10;;;;;;;8.19;100.00;95839.94;1030336;28;20033;-72
2022/11/07 01:51:58;;;;;;;1.45;0.90;;;;;;;8.18;100.00;95844.38;1023165;28;20027;-73
2022/11/07 01:52:32;;;;;;;2.42;1.25;;;;;;;8.18;100.00;95825.25;1021465;29;20114;-72
2022/11/07 01:53:02;;;;;;;1.63;1.25;;;;;;;8.20;100.00;95838.88;1023921;28;20718;-73
2022/11/07 01:53:33;;;;;;;1.73;1.13;;;;;;;8.21;100.00;95841.25;1023587;28;20262;-72
2022/11/07 01:54:04;;;;;;;1.88;1.27;;;;;;;8.18;100.00;95839.16;1026507;28;20034;-72
2022/11/07 01:54:38;;;;;;;1.50;1.30;;;;;;;8.12;100.00;95826.25;1022154;29;20281;-73
2022/11/07 01:55:20;;;;;;;1.98;1.33;;;;;;;8.16;100.00;95835.19;1024330;28;20062;-73
2022/11/07 01:55:50;;;;;;;1.67;1.38;;;;;;;8.17;100.00;95839.38;1022308;29;20302;-71
2022/11/07 01:56:23;;;;;;;1.98;1.20;;;;;;;8.12;100.00;95836.72;1026452;28;20735;-71
2022/11/07 01:56:54;;;;;;;1.40;1.00;;;;;;;8.13;100.00;95843.50;1020759;29;20031;-72
2022/11/07 01:57:28;;;;;;;4.40;1.33;;;;;;;8.16;100.00;95843.81;1022143;29;21022;-72
2022/11/07 01:58:03;;;;;;;1.58;1.13;;;;;;;8.10;100.00;95834.34;1030421;28;20273;-72
2022/11/07 01:58:34;;;;;;;1.60;1.17;;;;;;;8.15;100.00;95839.63;1026225;28;21005;-74
2022/11/07 01:59:04;;;;;;;1.30;1.00;;;;;;;8.13;100.00;95835.69;1026525;28;20387;-73
2022/11/07 01:59:35;;;;;;;2.13;1.25;;;;;;;8.15;100.00;95844.84;1022454;29;20035;-73
2022/11/07 02:00:08;;;;;;;2.08;1.10;;;;;;;8.11;100.00;95835.91;1019345;28;20036;-72
2022/11/07 02:00:38;;;;;;;1.52;1.17;;;;;;;8.11;100.00;95835.13;1018320;29;20191;-72
2022/11/07 02:01:08;;;;;;;2.20;1.15;;;;;;;8.07;100.00;95842.66;1018836;29;20271;-73
2022/11/07 02:01:39;;;;;;;1.95;1.20;;;;;;;8.09;100.00;95845.03;1014401;29;20036;-71
2022/11/07 02:02:10;;;;;;;1.75;1.00;;;;;;;8.06;100.00;95843.69;1018473;28;20036;-73
2022/11/07 02:02:40;;;;;;;2.15;1.20;;;;;;;8.05;100.00;95847.34;1025578;28;20034;-71
2022/11/07 02:03:12;;;;;;;3.05;1.38;;;;;;;8.01;100.00;95841.00;1025181;28;20677;-71
2022/11/07 02:03:45;;;;;;;2.58;1.25;;;;;;;7.99;100.00;95843.88;1029098;28;20034;-70
2022/11/07 02:04:16;;;;;;;2.17;0.90;;;;;;;7.99;100.00;95840.47;1022129;29;20291;-73
2022/11/07 02:04:46;;;;;;;1.35;1.20;;;;;;;7.94;100.00;95835.19;1022968;28;20023;-72
2022/11/07 02:05:27;;;;;;;1.10;1.00;;;;;;;7.98;100.00;95838.88;1027675;28;20030;-72
2022/11/07 02:05:59;;;;;;;;;;;;;;;7.98;100.00;95849.34;1034680;28;20073;-72
2022/11/07 02:06:45;;;;;;;2.97;1.02;;;;;;;7.90;100.00;95834.09;1024078;28;20380;-70
2022/11/07 02:07:20;;;;;;;2.20;1.20;;;;;;;7.92;100.00;95847.72;1025935;28;20357;-73
2022/11/07 02:07:51;;;;;;;1.52;1.05;;;;;;;7.91;100.00;95846.91;1025127;28;20301;-71
2022/11/07 02:08:21;;;;;;;3.30;1.33;;;;;;;7.91;100.00;95843.50;1022225;29;20279;-71
2022/11/07 02:08:52;;;;;;;1.83;1.20;;;;;;;7.90;100.00;95849.78;1026105;28;20033;-73
2022/11/07 02:09:23;;;;;;;1.38;1.00;;;;;;;7.75;100.00;95819.81;1026289;28;20038;-72
2022/11/07 02:09:53;;;;;;;3.42;1.20;;;;;;;7.88;100.00;95836.97;1034148;28;20030;-72
2022/11/07 02:10:24;;;;;;;3.75;1.55;;;;;;;7.95;100.00;95842.78;1022246;28;20031;-73
2022/11/07 02:10:54;;;;;;;1.73;1.33;;;;;;;7.94;100.00;95832.56;1018322;29;20833;-71
2022/11/07 02:11:25;;;;;;;1.83;1.17;;;;;;;7.94;100.00;95832.56;1022109;29;20026;-73
2022/11/07 02:11:59;;;;;;;2.03;1.00;;;;;;;7.98;100.00;95839.69;1022187;28;20054;-73
2022/11/07 02:12:30;;;;;;;2.55;1.38;;;;;;;7.99;100.00;95843.09;1021167;29;20027;-73
2022/11/07 02:13:00;;;;;;;2.17;1.25;;;;;;;8.04;100.00;95835.31;1017461;29;20271;-71
2022/11/07 02:13:31;;;;;;;1.75;1.00;;;;;;;8.10;100.00;95836.16;1025728;28;20086;-72
2022/11/07 02:14:02;;;;;;;1.30;1.13;;;;;;;8.11;100.00;95833.28;1026214;28;20057;-72
2022/11/07 02:14:32;;;;;;;1.38;1.15;;;;;;;8.16;100.00;95837.81;1025650;28;20069;-72
2022/11/07 02:15:03;;;;;;;1.75;1.20;;;;;;;8.17;100.00;95832.31;1026362;28;20281;-73
2022/11/07 02:15:34;;;;;;;2.10;0.85;;;;;;;8.11;100.00;95825.44;1024134;28;20050;-72
2022/11/07 02:16:04;;;;;;;1.40;1.02;;;;;;;8.12;100.00;95827.06;1022112;29;20467;-73
2022/11/07 02:16:35;;;;;;;2.15;1.20;;;;;;;8.13;100.00;95830.44;1022045;29;20078;-70
2022/11/07 02:17:05;;;;;;;2.10;1.20;;;;;;;8.12;100.00;95834.88;1025993;28;20026;-70
2022/11/07 02:17:39;;;;;;;1.02;0.93;;;;;;;8.04;100.00;95830.06;1022370;29;20072;-72
2022/11/07 02:18:10;;;;;;;1.45;1.10;;;;;;;8.04;100.00;95827.47;1022380;29;20015;-72
2022/11/07 02:18:40;;;;;;;2.22;1.38;;;;;;;8.04;100.00;95830.06;1026155;28;20767;-73
2022/11/07 02:19:43;;;;;;;1.52;1.10;;;;;;;8.11;100.00;95835.91;1022131;29;20054;-73
2022/11/07 02:20:13;;;;;;;2.13;1.15;;;;;;;8.03;100.00;95838.97;1018534;28;20034;-71
2022/11/07 02:20:44;;;;;;;1.52;1.02;;;;;;;7.98;100.00;95839.69;1025423;28;20273;-73
2022/11/07 02:21:17;;;;;;;1.70;0.80;;;;;;;7.96;100.00;95844.38;1023557;28;20112;-72
2022/11/07 02:22:02;;;;;;;1.58;1.02;;;;;;;7.91;100.00;95840.88;1026639;28;20417;-72
2022/11/07 02:22:51;;;;;;;1.27;1.00;;;;;;;7.86;100.00;95848.69;1027514;28;20266;-73
2022/11/07 02:23:26;;;;;;;2.50;1.20;;;;;;;7.81;100.00;95852.00;1030274;28;20548;-72
2022/11/07 02:24:03;;;;;;;1.90;1.20;;;;;;;7.77;100.00;95849.09;1027271;28;20366;-72
2022/11/07 02:24:34;;;;;;;2.67;1.10;;;;;;;7.71;100.00;95846.63;1025967;28;20345;-73
2022/11/07 02:25:07;;;;;;;1.17;0.95;;;;;;;7.68;100.00;95845.31;1026191;28;20329;-72
2022/11/07 02:25:37;;;;;;;1.10;1.00;;;;;;;7.59;100.00;95836.31;1028969;28;20034;-73
2022/11/07 02:26:08;;;;;;;1.92;1.48;;;;;;;7.61;100.00;95847.28;1021933;28;20629;-72
2022/11/07 02:26:38;;;;;;;1.95;1.25;;;;;;;7.59;100.00;95843.38;1028035;28;20156;-71
2022/11/07 02:27:13;;;;;;;4.68;0.90;;;;;;;7.59;100.00;95849.38;1023199;28;20023;-71
2022/11/07 02:27:44;;;;;;;1.98;1.02;;;;;;;7.61;100.00;95847.28;1021889;29;20489;-71
2022/11/07 02:28:14;;;;;;;1.75;0.90;;;;;;;7.53;100.00;95842.50;1021847;29;20275;-71
2022/11/07 02:28:45;;;;;;;1.35;1.05;;;;;;;7.61;100.00;95847.28;1022741;28;20027;-71
2022/11/07 02:29:15;;;;;;;1.63;0.88;;;;;;;7.64;100.00;95851.25;1021386;28;20810;-71
2022/11/07 02:29:48;;;;;;;0.63;0.63;;;;;;;7.62;100.00;95848.09;1022737;28;20027;-71
2022/11/07 02:30:21;;;;;;;3.05;1.20;;;;;;;7.67;100.00;95845.56;1022848;29;20042;-71
2022/11/07 02:30:51;;;;;;;1.60;0.88;;;;;;;7.66;100.00;95849.19;1026360;28;20266;-73
2022/11/07 02:31:22;;;;;;;2.05;0.95;;;;;;;7.67;100.00;95853.38;1026764;28;20274;-72
2022/11/07 02:32:01;;;;;;;2.25;0.80;;;;;;;7.72;100.00;95849.03;1027093;28;20684;-72